sensor_id;sensor_type;location;lat;lon;timestamp;P1;durP1;ratioP1;P2;durP2;ratioP2
57327;SDS011;43162;51.040;18.244;2022-09-09T00:04:41;99.40;;;22.10;;
57327;SDS011;43162;51.040;18.244;2022-09-09T00:07:12;161.80;;;25.00;;
57327;SDS011;43162;51.040;18.244;2022-09-09T00:09:42;180.40;;;26.60;;
57327;SDS011;43162;51.040;18.244;2022-09-09T00:12:18;174.80;;;24.20;;
57327;SDS011;43162;51.040;18.244;2022-09-09T00:14:51;136.00;;;24.20;;
57327;SDS011;43162;51.040;18.244;2022-09-09T00:17:32;249.40;;;25.80;;
57327;SDS011;43162;51.040;18.244;2022-09-09T00:20:01;248.00;;;24.00;;
57327;SDS011;43162;51.040;18.244;2022-09-09T00:22:28;176.50;;;23.70;;
57327;SDS011;43162;51.040;18.244;2022-09-09T00:24:57;154.50;;;22.90;;
57327;SDS011;43162;51.040;18.244;2022-09-09T00:27:49;114.90;;;22.70;;
57327;SDS011;43162;51.040;18.244;2022-09-09T00:30:26;90.60;;;22.10;;
57327;SDS011;43162;51.040;18.244;2022-09-09T00:32:58;55.60;;;21.10;;
57327;SDS011;43162;51.040;18.244;2022-09-09T00:35:26;49.10;;;20.70;;
57327;SDS011;43162;51.040;18.244;2022-09-09T00:37:57;39.90;;;20.00;;
57327;SDS011;43162;51.040;18.244;2022-09-09T00:43:15;41.40;;;20.10;;
57327;SDS011;43162;51.040;18.244;2022-09-09T00:48:14;43.00;;;19.80;;
57327;SDS011;43162;51.040;18.244;2022-09-09T00:58:06;43.20;;;21.20;;
57327;SDS011;43162;51.040;18.244;2022-09-09T01:10:57;50.50;;;24.00;;
57327;SDS011;43162;51.040;18.244;2022-09-09T01:13:24;50.60;;;24.40;;
57327;SDS011;43162;51.040;18.244;2022-09-09T01:15:51;50.00;;;24.00;;
57327;SDS011;43162;51.040;18.244;2022-09-09T01:18:19;52.10;;;23.50;;
57327;SDS011;43162;51.040;18.244;2022-09-09T01:28:54;58.90;;;23.70;;
57327;SDS011;43162;51.040;18.244;2022-09-09T01:31:21;57.30;;;23.60;;
57327;SDS011;43162;51.040;18.244;2022-09-09T01:33:48;54.10;;;23.80;;
57327;SDS011;43162;51.040;18.244;2022-09-09T01:36:21;58.90;;;25.80;;
57327;SDS011;43162;51.040;18.244;2022-09-09T01:38:49;64.00;;;26.70;;
57327;SDS011;43162;51.040;18.244;2022-09-09T01:41:15;74.30;;;30.20;;
57327;SDS011;43162;51.040;18.244;2022-09-09T01:43:40;105.60;;;35.20;;
57327;SDS011;43162;51.040;18.244;2022-09-09T01:46:06;124.30;;;38.70;;
57327;SDS011;43162;51.040;18.244;2022-09-09T01:48:33;141.20;;;40.10;;
57327;SDS011;43162;51.040;18.244;2022-09-09T01:50:59;155.80;;;41.20;;
57327;SDS011;43162;51.040;18.244;2022-09-09T01:53:24;150.90;;;39.90;;
57327;SDS011;43162;51.040;18.244;2022-09-09T02:03:38;318.50;;;50.00;;
57327;SDS011;43162;51.040;18.244;2022-09-09T02:06:13;393.40;;;53.00;;
57327;SDS011;43162;51.040;18.244;2022-09-09T02:08:47;424.00;;;50.60;;
57327;SDS011;43162;51.040;18.244;2022-09-09T02:11:16;424.60;;;50.20;;
57327;SDS011;43162;51.040;18.244;2022-09-09T02:13:43;399.70;;;46.70;;
57327;SDS011;43162;51.040;18.244;2022-09-09T02:16:18;504.10;;;49.00;;
57327;SDS011;43162;51.040;18.244;2022-09-09T02:19:03;487.00;;;52.20;;
57327;SDS011;43162;51.040;18.244;2022-09-09T02:21:32;457.60;;;48.70;;
57327;SDS011;43162;51.040;18.244;2022-09-09T02:24:02;456.90;;;47.10;;
57327;SDS011;43162;51.040;18.244;2022-09-09T02:26:31;389.60;;;47.40;;
57327;SDS011;43162;51.040;18.244;2022-09-09T02:28:59;384.20;;;46.70;;
57327;SDS011;43162;51.040;18.244;2022-09-09T02:31:26;433.00;;;48.20;;
57327;SDS011;43162;51.040;18.244;2022-09-09T02:33:56;427.80;;;48.70;;
57327;SDS011;43162;51.040;18.244;2022-09-09T02:36:23;365.00;;;50.50;;
57327;SDS011;43162;51.040;18.244;2022-09-09T02:38:49;360.00;;;44.80;;
57327;SDS011;43162;51.040;18.244;2022-09-09T02:41:19;349.80;;;48.20;;
57327;SDS011;43162;51.040;18.244;2022-09-09T02:43:47;268.10;;;46.40;;
57327;SDS011;43162;51.040;18.244;2022-09-09T02:46:18;289.90;;;45.30;;
57327;SDS011;43162;51.040;18.244;2022-09-09T02:51:40;273.50;;;51.20;;
57327;SDS011;43162;51.040;18.244;2022-09-09T02:56:49;169.50;;;42.60;;
57327;SDS011;43162;51.040;18.244;2022-09-09T02:59:16;136.40;;;43.10;;
57327;SDS011;43162;51.040;18.244;2022-09-09T03:01:43;138.80;;;43.20;;
57327;SDS011;43162;51.040;18.244;2022-09-09T03:04:09;112.50;;;41.40;;
57327;SDS011;43162;51.040;18.244;2022-09-09T03:06:34;100.40;;;40.80;;
57327;SDS011;43162;51.040;18.244;2022-09-09T03:09:01;109.40;;;42.10;;
57327;SDS011;43162;51.040;18.244;2022-09-09T03:11:27;115.40;;;43.80;;
57327;SDS011;43162;51.040;18.244;2022-09-09T03:13:53;109.30;;;43.30;;
57327;SDS011;43162;51.040;18.244;2022-09-09T03:16:21;125.50;;;46.50;;
57327;SDS011;43162;51.040;18.244;2022-09-09T03:18:47;216.80;;;49.00;;
57327;SDS011;43162;51.040;18.244;2022-09-09T03:21:13;261.30;;;49.00;;
57327;SDS011;43162;51.040;18.244;2022-09-09T03:23:40;206.10;;;48.70;;
57327;SDS011;43162;51.040;18.244;2022-09-09T03:26:06;244.20;;;50.30;;
57327;SDS011;43162;51.040;18.244;2022-09-09T03:28:31;400.00;;;60.60;;
57327;SDS011;43162;51.040;18.244;2022-09-09T03:30:58;367.50;;;54.30;;
57327;SDS011;43162;51.040;18.244;2022-09-09T03:33:24;197.70;;;45.40;;
57327;SDS011;43162;51.040;18.244;2022-09-09T03:35:50;229.10;;;51.60;;
57327;SDS011;43162;51.040;18.244;2022-09-09T03:38:16;148.10;;;45.70;;
57327;SDS011;43162;51.040;18.244;2022-09-09T03:40:51;112.80;;;44.40;;
57327;SDS011;43162;51.040;18.244;2022-09-09T03:43:22;118.40;;;46.60;;
57327;SDS011;43162;51.040;18.244;2022-09-09T03:45:49;118.10;;;46.30;;
57327;SDS011;43162;51.040;18.244;2022-09-09T03:48:18;113.20;;;45.90;;
57327;SDS011;43162;51.040;18.244;2022-09-09T03:50:47;116.80;;;47.60;;
57327;SDS011;43162;51.040;18.244;2022-09-09T03:53:14;128.20;;;48.60;;
57327;SDS011;43162;51.040;18.244;2022-09-09T03:55:43;126.00;;;49.60;;
57327;SDS011;43162;51.040;18.244;2022-09-09T03:58:08;123.70;;;49.50;;
57327;SDS011;43162;51.040;18.244;2022-09-09T04:00:34;128.50;;;51.20;;
57327;SDS011;43162;51.040;18.244;2022-09-09T04:03:00;131.70;;;52.80;;
57327;SDS011;43162;51.040;18.244;2022-09-09T04:05:26;133.80;;;53.20;;
57327;SDS011;43162;51.040;18.244;2022-09-09T04:07:51;127.90;;;51.80;;
57327;SDS011;43162;51.040;18.244;2022-09-09T04:10:16;127.60;;;52.40;;
57327;SDS011;43162;51.040;18.244;2022-09-09T04:12:42;120.90;;;50.60;;
57327;SDS011;43162;51.040;18.244;2022-09-09T04:15:07;124.90;;;51.20;;
57327;SDS011;43162;51.040;18.244;2022-09-09T04:17:33;118.30;;;51.30;;
57327;SDS011;43162;51.040;18.244;2022-09-09T04:19:59;116.50;;;50.40;;
57327;SDS011;43162;51.040;18.244;2022-09-09T04:22:24;121.70;;;51.40;;
57327;SDS011;43162;51.040;18.244;2022-09-09T04:24:49;123.70;;;53.30;;
57327;SDS011;43162;51.040;18.244;2022-09-09T04:27:15;126.10;;;54.10;;
57327;SDS011;43162;51.040;18.244;2022-09-09T04:29:41;129.40;;;53.50;;
57327;SDS011;43162;51.040;18.244;2022-09-09T04:32:06;112.20;;;50.40;;
57327;SDS011;43162;51.040;18.244;2022-09-09T04:34:31;123.40;;;52.70;;
57327;SDS011;43162;51.040;18.244;2022-09-09T04:36:58;119.20;;;52.40;;
57327;SDS011;43162;51.040;18.244;2022-09-09T04:39:24;110.30;;;52.30;;
57327;SDS011;43162;51.040;18.244;2022-09-09T04:41:51;112.10;;;52.30;;
57327;SDS011;43162;51.040;18.244;2022-09-09T04:44:18;118.10;;;53.60;;
57327;SDS011;43162;51.040;18.244;2022-09-09T04:46:44;121.90;;;54.30;;
57327;SDS011;43162;51.040;18.244;2022-09-09T04:49:10;117.30;;;53.60;;
57327;SDS011;43162;51.040;18.244;2022-09-09T04:51:35;155.50;;;71.60;;
57327;SDS011;43162;51.040;18.244;2022-09-09T04:54:01;122.20;;;55.50;;
57327;SDS011;43162;51.040;18.244;2022-09-09T04:56:27;111.90;;;53.30;;
57327;SDS011;43162;51.040;18.244;2022-09-09T04:58:53;123.10;;;55.30;;
57327;SDS011;43162;51.040;18.244;2022-09-09T05:01:20;112.90;;;53.70;;
57327;SDS011;43162;51.040;18.244;2022-09-09T05:03:47;104.80;;;51.50;;
57327;SDS011;43162;51.040;18.244;2022-09-09T05:06:13;107.20;;;52.70;;
57327;SDS011;43162;51.040;18.244;2022-09-09T05:08:40;102.80;;;50.60;;
57327;SDS011;43162;51.040;18.244;2022-09-09T05:14:04;130.80;;;55.50;;
57327;SDS011;43162;51.040;18.244;2022-09-09T05:16:30;106.80;;;47.90;;
57327;SDS011;43162;51.040;18.244;2022-09-09T05:18:56;61.40;;;35.20;;
57327;SDS011;43162;51.040;18.244;2022-09-09T05:21:22;51.00;;;31.20;;
57327;SDS011;43162;51.040;18.244;2022-09-09T05:23:49;50.20;;;28.50;;
57327;SDS011;43162;51.040;18.244;2022-09-09T05:26:17;35.50;;;22.00;;
57327;SDS011;43162;51.040;18.244;2022-09-09T05:28:44;17.90;;;16.10;;
57327;SDS011;43162;51.040;18.244;2022-09-09T05:31:12;15.40;;;13.90;;
57327;SDS011;43162;51.040;18.244;2022-09-09T05:33:38;14.10;;;12.70;;
57327;SDS011;43162;51.040;18.244;2022-09-09T05:36:09;12.50;;;11.20;;
57327;SDS011;43162;51.040;18.244;2022-09-09T05:38:36;12.10;;;10.80;;
57327;SDS011;43162;51.040;18.244;2022-09-09T05:41:05;10.60;;;9.50;;
57327;SDS011;43162;51.040;18.244;2022-09-09T05:43:31;10.00;;;9.00;;
57327;SDS011;43162;51.040;18.244;2022-09-09T05:45:59;10.30;;;9.10;;
57327;SDS011;43162;51.040;18.244;2022-09-09T05:48:29;12.10;;;9.30;;
57327;SDS011;43162;51.040;18.244;2022-09-09T05:50:55;11.60;;;8.70;;
57327;SDS011;43162;51.040;18.244;2022-09-09T05:53:20;9.60;;;8.10;;
57327;SDS011;43162;51.040;18.244;2022-09-09T05:55:46;10.40;;;7.70;;
57327;SDS011;43162;51.040;18.244;2022-09-09T05:58:13;9.30;;;7.20;;
57327;SDS011;43162;51.040;18.244;2022-09-09T06:00:39;10.40;;;6.50;;
57327;SDS011;43162;51.040;18.244;2022-09-09T06:03:05;9.80;;;6.50;;
57327;SDS011;43162;51.040;18.244;2022-09-09T06:05:30;8.20;;;6.40;;
57327;SDS011;43162;51.040;18.244;2022-09-09T06:07:56;7.70;;;5.90;;
57327;SDS011;43162;51.040;18.244;2022-09-09T06:10:21;7.40;;;5.70;;
57327;SDS011;43162;51.040;18.244;2022-09-09T06:12:47;8.60;;;6.10;;
57327;SDS011;43162;51.040;18.244;2022-09-09T06:15:12;9.70;;;5.30;;
57327;SDS011;43162;51.040;18.244;2022-09-09T06:17:38;6.80;;;5.30;;
57327;SDS011;43162;51.040;18.244;2022-09-09T06:20:04;7.50;;;5.30;;
57327;SDS011;43162;51.040;18.244;2022-09-09T06:22:30;6.30;;;4.70;;
57327;SDS011;43162;51.040;18.244;2022-09-09T06:24:55;6.50;;;5.00;;
57327;SDS011;43162;51.040;18.244;2022-09-09T06:27:21;6.90;;;5.10;;
57327;SDS011;43162;51.040;18.244;2022-09-09T06:29:47;10.60;;;5.10;;
57327;SDS011;43162;51.040;18.244;2022-09-09T06:32:13;5.40;;;4.60;;
57327;SDS011;43162;51.040;18.244;2022-09-09T06:34:39;7.40;;;4.50;;
57327;SDS011;43162;51.040;18.244;2022-09-09T06:37:05;5.30;;;4.50;;
57327;SDS011;43162;51.040;18.244;2022-09-09T06:39:32;7.30;;;4.60;;
57327;SDS011;43162;51.040;18.244;2022-09-09T06:41:57;5.20;;;4.10;;
57327;SDS011;43162;51.040;18.244;2022-09-09T06:44:23;5.80;;;4.10;;
57327;SDS011;43162;51.040;18.244;2022-09-09T06:46:52;6.90;;;4.00;;
57327;SDS011;43162;51.040;18.244;2022-09-09T06:49:19;6.40;;;4.10;;
57327;SDS011;43162;51.040;18.244;2022-09-09T06:51:45;6.80;;;4.20;;
57327;SDS011;43162;51.040;18.244;2022-09-09T06:54:12;5.40;;;3.80;;
57327;SDS011;43162;51.040;18.244;2022-09-09T06:56:38;6.60;;;4.30;;
57327;SDS011;43162;51.040;18.244;2022-09-09T06:59:09;10.30;;;3.80;;
57327;SDS011;43162;51.040;18.244;2022-09-09T07:01:37;5.30;;;3.50;;
57327;SDS011;43162;51.040;18.244;2022-09-09T07:04:05;5.30;;;3.10;;
57327;SDS011;43162;51.040;18.244;2022-09-09T07:06:34;6.70;;;3.80;;
57327;SDS011;43162;51.040;18.244;2022-09-09T07:09:04;5.30;;;3.60;;
57327;SDS011;43162;51.040;18.244;2022-09-09T07:11:32;5.40;;;3.70;;
57327;SDS011;43162;51.040;18.244;2022-09-09T07:13:58;4.10;;;3.40;;
57327;SDS011;43162;51.040;18.244;2022-09-09T07:16:24;6.10;;;3.50;;
57327;SDS011;43162;51.040;18.244;2022-09-09T07:18:50;4.30;;;3.50;;
57327;SDS011;43162;51.040;18.244;2022-09-09T07:21:16;5.10;;;3.80;;
57327;SDS011;43162;51.040;18.244;2022-09-09T07:23:42;5.80;;;3.90;;
57327;SDS011;43162;51.040;18.244;2022-09-09T07:26:12;5.60;;;4.30;;
57327;SDS011;43162;51.040;18.244;2022-09-09T07:28:39;6.20;;;4.30;;
57327;SDS011;43162;51.040;18.244;2022-09-09T07:31:06;5.20;;;4.20;;
57327;SDS011;43162;51.040;18.244;2022-09-09T07:33:33;5.40;;;3.80;;
57327;SDS011;43162;51.040;18.244;2022-09-09T07:36:04;6.90;;;4.00;;
57327;SDS011;43162;51.040;18.244;2022-09-09T07:38:55;4.80;;;3.90;;
57327;SDS011;43162;51.040;18.244;2022-09-09T07:41:29;4.80;;;3.80;;
57327;SDS011;43162;51.040;18.244;2022-09-09T07:43:56;4.90;;;3.70;;
57327;SDS011;43162;51.040;18.244;2022-09-09T07:46:23;5.00;;;4.00;;
57327;SDS011;43162;51.040;18.244;2022-09-09T07:49:42;6.90;;;4.00;;
57327;SDS011;43162;51.040;18.244;2022-09-09T07:52:12;4.80;;;3.60;;
57327;SDS011;43162;51.040;18.244;2022-09-09T07:54:37;6.20;;;4.00;;
57327;SDS011;43162;51.040;18.244;2022-09-09T07:57:03;4.30;;;3.00;;
57327;SDS011;43162;51.040;18.244;2022-09-09T07:59:29;5.40;;;3.30;;
57327;SDS011;43162;51.040;18.244;2022-09-09T08:01:56;5.80;;;3.40;;
57327;SDS011;43162;51.040;18.244;2022-09-09T08:04:22;4.60;;;3.00;;
57327;SDS011;43162;51.040;18.244;2022-09-09T08:06:49;5.60;;;3.20;;
57327;SDS011;43162;51.040;18.244;2022-09-09T08:09:15;4.70;;;2.80;;
57327;SDS011;43162;51.040;18.244;2022-09-09T08:11:42;3.90;;;2.60;;
57327;SDS011;43162;51.040;18.244;2022-09-09T08:14:09;4.80;;;2.30;;
57327;SDS011;43162;51.040;18.244;2022-09-09T08:16:37;3.40;;;1.90;;
57327;SDS011;43162;51.040;18.244;2022-09-09T08:19:03;3.60;;;1.50;;
57327;SDS011;43162;51.040;18.244;2022-09-09T08:21:29;4.90;;;1.80;;
57327;SDS011;43162;51.040;18.244;2022-09-09T08:23:56;4.40;;;2.20;;
57327;SDS011;43162;51.040;18.244;2022-09-09T08:26:23;6.30;;;2.20;;
57327;SDS011;43162;51.040;18.244;2022-09-09T08:28:50;4.50;;;2.10;;
57327;SDS011;43162;51.040;18.244;2022-09-09T08:31:18;5.10;;;2.00;;
57327;SDS011;43162;51.040;18.244;2022-09-09T08:33:44;5.40;;;1.60;;
57327;SDS011;43162;51.040;18.244;2022-09-09T08:36:32;5.20;;;1.70;;
57327;SDS011;43162;51.040;18.244;2022-09-09T08:38:59;3.90;;;1.30;;
57327;SDS011;43162;51.040;18.244;2022-09-09T08:46:43;4.30;;;1.10;;
57327;SDS011;43162;51.040;18.244;2022-09-09T08:51:36;2.60;;;1.30;;
57327;SDS011;43162;51.040;18.244;2022-09-09T08:54:03;2.70;;;1.40;;
57327;SDS011;43162;51.040;18.244;2022-09-09T08:56:30;3.50;;;1.20;;
57327;SDS011;43162;51.040;18.244;2022-09-09T08:58:56;2.40;;;1.10;;
57327;SDS011;43162;51.040;18.244;2022-09-09T09:01:41;2.70;;;1.20;;
57327;SDS011;43162;51.040;18.244;2022-09-09T09:07:00;3.90;;;1.60;;
57327;SDS011;43162;51.040;18.244;2022-09-09T09:12:25;3.00;;;1.40;;
57327;SDS011;43162;51.040;18.244;2022-09-09T09:14:52;2.90;;;1.50;;
57327;SDS011;43162;51.040;18.244;2022-09-09T09:17:19;2.20;;;1.30;;
57327;SDS011;43162;51.040;18.244;2022-09-09T09:19:46;3.30;;;1.40;;
57327;SDS011;43162;51.040;18.244;2022-09-09T09:22:19;3.00;;;1.10;;
57327;SDS011;43162;51.040;18.244;2022-09-09T09:27:15;3.90;;;1.10;;
57327;SDS011;43162;51.040;18.244;2022-09-09T09:29:42;2.80;;;0.80;;
57327;SDS011;43162;51.040;18.244;2022-09-09T09:32:10;2.50;;;0.80;;
57327;SDS011;43162;51.040;18.244;2022-09-09T09:34:38;3.30;;;0.80;;
57327;SDS011;43162;51.040;18.244;2022-09-09T09:37:12;2.80;;;0.80;;
57327;SDS011;43162;51.040;18.244;2022-09-09T09:39:42;2.10;;;0.80;;
57327;SDS011;43162;51.040;18.244;2022-09-09T09:42:11;3.90;;;1.10;;
57327;SDS011;43162;51.040;18.244;2022-09-09T09:44:39;2.30;;;1.00;;
57327;SDS011;43162;51.040;18.244;2022-09-09T09:47:10;3.50;;;0.90;;
57327;SDS011;43162;51.040;18.244;2022-09-09T09:49:38;3.50;;;1.30;;
57327;SDS011;43162;51.040;18.244;2022-09-09T09:52:12;1.80;;;0.80;;
57327;SDS011;43162;51.040;18.244;2022-09-09T09:54:39;2.30;;;0.60;;
57327;SDS011;43162;51.040;18.244;2022-09-09T09:57:14;2.70;;;0.80;;
57327;SDS011;43162;51.040;18.244;2022-09-09T09:59:41;1.70;;;0.70;;
57327;SDS011;43162;51.040;18.244;2022-09-09T10:02:19;2.20;;;0.70;;
57327;SDS011;43162;51.040;18.244;2022-09-09T10:04:46;2.10;;;0.80;;
57327;SDS011;43162;51.040;18.244;2022-09-09T10:07:22;2.60;;;0.80;;
57327;SDS011;43162;51.040;18.244;2022-09-09T10:09:52;2.10;;;0.90;;
57327;SDS011;43162;51.040;18.244;2022-09-09T10:14:48;5.10;;;0.90;;
57327;SDS011;43162;51.040;18.244;2022-09-09T10:19:45;3.00;;;1.00;;
57327;SDS011;43162;51.040;18.244;2022-09-09T10:22:19;2.50;;;0.80;;
57327;SDS011;43162;51.040;18.244;2022-09-09T10:25:01;7.90;;;1.10;;
57327;SDS011;43162;51.040;18.244;2022-09-09T10:43:02;2.00;;;0.70;;
57327;SDS011;43162;51.040;18.244;2022-09-09T10:50:41;1.90;;;0.80;;
57327;SDS011;43162;51.040;18.244;2022-09-09T10:55:43;3.00;;;0.70;;
57327;SDS011;43162;51.040;18.244;2022-09-09T10:58:13;5.10;;;0.70;;
57327;SDS011;43162;51.040;18.244;2022-09-09T11:00:41;2.20;;;0.50;;
57327;SDS011;43162;51.040;18.244;2022-09-09T11:03:19;1.90;;;0.60;;
57327;SDS011;43162;51.040;18.244;2022-09-09T11:06:06;4.20;;;0.80;;
57327;SDS011;43162;51.040;18.244;2022-09-09T11:08:31;2.10;;;0.60;;
57327;SDS011;43162;51.040;18.244;2022-09-09T11:11:19;2.20;;;0.50;;
57327;SDS011;43162;51.040;18.244;2022-09-09T11:21:46;1.90;;;0.50;;
57327;SDS011;43162;51.040;18.244;2022-09-09T11:24:31;2.80;;;0.70;;
57327;SDS011;43162;51.040;18.244;2022-09-09T11:27:02;3.10;;;0.70;;
57327;SDS011;43162;51.040;18.244;2022-09-09T11:29:37;2.60;;;0.50;;
57327;SDS011;43162;51.040;18.244;2022-09-09T11:42:28;3.10;;;0.50;;
57327;SDS011;43162;51.040;18.244;2022-09-09T11:44:53;1.30;;;0.50;;
57327;SDS011;43162;51.040;18.244;2022-09-09T11:49:52;2.30;;;0.40;;
57327;SDS011;43162;51.040;18.244;2022-09-09T11:52:24;1.30;;;0.50;;
57327;SDS011;43162;51.040;18.244;2022-09-09T11:54:51;2.60;;;0.50;;
57327;SDS011;43162;51.040;18.244;2022-09-09T11:57:27;3.30;;;0.60;;
57327;SDS011;43162;51.040;18.244;2022-09-09T11:59:56;1.70;;;0.50;;
57327;SDS011;43162;51.040;18.244;2022-09-09T12:02:22;2.60;;;0.50;;
57327;SDS011;43162;51.040;18.244;2022-09-09T12:07:22;1.90;;;0.50;;
57327;SDS011;43162;51.040;18.244;2022-09-09T12:12:39;2.10;;;0.50;;
57327;SDS011;43162;51.040;18.244;2022-09-09T12:17:44;3.20;;;0.60;;
57327;SDS011;43162;51.040;18.244;2022-09-09T12:20:23;1.30;;;0.50;;
57327;SDS011;43162;51.040;18.244;2022-09-09T12:25:48;1.90;;;0.50;;
57327;SDS011;43162;51.040;18.244;2022-09-09T12:28:17;3.20;;;0.60;;
57327;SDS011;43162;51.040;18.244;2022-09-09T12:30:49;2.60;;;0.70;;
57327;SDS011;43162;51.040;18.244;2022-09-09T12:33:17;4.70;;;0.60;;
57327;SDS011;43162;51.040;18.244;2022-09-09T12:35:43;8.80;;;0.80;;
57327;SDS011;43162;51.040;18.244;2022-09-09T12:38:12;2.40;;;0.50;;
57327;SDS011;43162;51.040;18.244;2022-09-09T12:40:39;3.50;;;0.60;;
57327;SDS011;43162;51.040;18.244;2022-09-09T12:43:20;2.90;;;0.50;;
57327;SDS011;43162;51.040;18.244;2022-09-09T12:45:47;4.10;;;0.60;;
57327;SDS011;43162;51.040;18.244;2022-09-09T12:48:16;1.80;;;0.40;;
57327;SDS011;43162;51.040;18.244;2022-09-09T12:53:11;3.20;;;0.40;;
57327;SDS011;43162;51.040;18.244;2022-09-09T12:55:48;2.40;;;0.50;;
57327;SDS011;43162;51.040;18.244;2022-09-09T12:58:16;2.30;;;0.50;;
57327;SDS011;43162;51.040;18.244;2022-09-09T13:00:48;1.20;;;0.40;;
57327;SDS011;43162;51.040;18.244;2022-09-09T13:03:19;2.00;;;0.40;;
57327;SDS011;43162;51.040;18.244;2022-09-09T13:05:46;1.30;;;0.40;;
57327;SDS011;43162;51.040;18.244;2022-09-09T13:08:15;2.30;;;0.50;;
57327;SDS011;43162;51.040;18.244;2022-09-09T13:10:44;2.40;;;0.60;;
57327;SDS011;43162;51.040;18.244;2022-09-09T13:13:13;4.70;;;0.60;;
57327;SDS011;43162;51.040;18.244;2022-09-09T13:15:39;2.30;;;0.50;;
57327;SDS011;43162;51.040;18.244;2022-09-09T13:18:06;7.30;;;0.70;;
57327;SDS011;43162;51.040;18.244;2022-09-09T13:20:33;2.30;;;0.50;;
57327;SDS011;43162;51.040;18.244;2022-09-09T13:22:59;3.10;;;0.60;;
57327;SDS011;43162;51.040;18.244;2022-09-09T13:25:26;1.30;;;0.50;;
57327;SDS011;43162;51.040;18.244;2022-09-09T13:30:20;3.10;;;0.80;;
57327;SDS011;43162;51.040;18.244;2022-09-09T13:32:59;1.80;;;0.50;;
57327;SDS011;43162;51.040;18.244;2022-09-09T13:35:27;3.30;;;0.60;;
57327;SDS011;43162;51.040;18.244;2022-09-09T13:37:55;2.00;;;0.50;;
57327;SDS011;43162;51.040;18.244;2022-09-09T13:40:21;2.50;;;0.50;;
57327;SDS011;43162;51.040;18.244;2022-09-09T13:42:59;2.00;;;0.40;;
57327;SDS011;43162;51.040;18.244;2022-09-09T13:45:25;1.90;;;0.30;;
57327;SDS011;43162;51.040;18.244;2022-09-09T13:47:55;2.60;;;0.40;;
57327;SDS011;43162;51.040;18.244;2022-09-09T13:50:22;0.90;;;0.40;;
57327;SDS011;43162;51.040;18.244;2022-09-09T13:52:53;2.70;;;0.50;;
57327;SDS011;43162;51.040;18.244;2022-09-09T13:55:20;3.30;;;0.40;;
57327;SDS011;43162;51.040;18.244;2022-09-09T13:57:50;3.30;;;0.50;;
57327;SDS011;43162;51.040;18.244;2022-09-09T14:00:16;5.20;;;0.60;;
57327;SDS011;43162;51.040;18.244;2022-09-09T14:02:42;4.40;;;0.60;;
57327;SDS011;43162;51.040;18.244;2022-09-09T14:05:09;3.20;;;0.50;;
57327;SDS011;43162;51.040;18.244;2022-09-09T14:07:37;7.40;;;0.70;;
57327;SDS011;43162;51.040;18.244;2022-09-09T14:10:14;3.40;;;0.50;;
57327;SDS011;43162;51.040;18.244;2022-09-09T14:12:40;2.10;;;0.50;;
57327;SDS011;43162;51.040;18.244;2022-09-09T14:15:06;3.10;;;0.50;;
57327;SDS011;43162;51.040;18.244;2022-09-09T14:17:32;1.70;;;0.40;;
57327;SDS011;43162;51.040;18.244;2022-09-09T14:19:59;2.00;;;0.50;;
57327;SDS011;43162;51.040;18.244;2022-09-09T14:22:24;2.30;;;0.40;;
57327;SDS011;43162;51.040;18.244;2022-09-09T14:24:51;3.40;;;0.50;;
57327;SDS011;43162;51.040;18.244;2022-09-09T14:27:17;3.40;;;0.50;;
57327;SDS011;43162;51.040;18.244;2022-09-09T14:29:48;2.50;;;0.50;;
57327;SDS011;43162;51.040;18.244;2022-09-09T14:32:14;4.10;;;0.80;;
57327;SDS011;43162;51.040;18.244;2022-09-09T14:34:39;5.50;;;1.00;;
57327;SDS011;43162;51.040;18.244;2022-09-09T14:37:06;3.80;;;0.50;;
57327;SDS011;43162;51.040;18.244;2022-09-09T14:39:31;3.50;;;0.60;;
57327;SDS011;43162;51.040;18.244;2022-09-09T14:41:57;2.70;;;0.50;;
57327;SDS011;43162;51.040;18.244;2022-09-09T14:44:23;4.80;;;0.70;;
57327;SDS011;43162;51.040;18.244;2022-09-09T14:46:49;2.60;;;0.50;;
57327;SDS011;43162;51.040;18.244;2022-09-09T14:49:18;3.30;;;0.50;;
57327;SDS011;43162;51.040;18.244;2022-09-09T14:51:44;3.10;;;0.50;;
57327;SDS011;43162;51.040;18.244;2022-09-09T14:54:09;2.20;;;0.60;;
57327;SDS011;43162;51.040;18.244;2022-09-09T14:56:36;2.60;;;0.50;;
57327;SDS011;43162;51.040;18.244;2022-09-09T14:59:03;3.10;;;0.50;;
57327;SDS011;43162;51.040;18.244;2022-09-09T15:01:29;2.70;;;0.60;;
57327;SDS011;43162;51.040;18.244;2022-09-09T15:03:56;2.50;;;0.50;;
57327;SDS011;43162;51.040;18.244;2022-09-09T15:06:23;2.70;;;0.40;;
57327;SDS011;43162;51.040;18.244;2022-09-09T15:08:50;2.90;;;0.50;;
57327;SDS011;43162;51.040;18.244;2022-09-09T15:11:16;2.80;;;0.50;;
57327;SDS011;43162;51.040;18.244;2022-09-09T15:13:42;1.80;;;0.40;;
57327;SDS011;43162;51.040;18.244;2022-09-09T15:16:09;3.00;;;0.50;;
57327;SDS011;43162;51.040;18.244;2022-09-09T15:18:35;2.80;;;0.50;;
57327;SDS011;43162;51.040;18.244;2022-09-09T15:21:02;2.80;;;0.40;;
57327;SDS011;43162;51.040;18.244;2022-09-09T15:23:36;4.10;;;0.50;;
57327;SDS011;43162;51.040;18.244;2022-09-09T15:26:03;2.00;;;0.40;;
57327;SDS011;43162;51.040;18.244;2022-09-09T15:28:34;2.70;;;0.40;;
57327;SDS011;43162;51.040;18.244;2022-09-09T15:31:07;2.30;;;0.50;;
57327;SDS011;43162;51.040;18.244;2022-09-09T15:33:34;4.90;;;0.70;;
57327;SDS011;43162;51.040;18.244;2022-09-09T15:36:24;2.20;;;0.50;;
57327;SDS011;43162;51.040;18.244;2022-09-09T15:38:48;1.30;;;0.50;;
57327;SDS011;43162;51.040;18.244;2022-09-09T15:41:13;4.80;;;0.60;;
57327;SDS011;43162;51.040;18.244;2022-09-09T15:43:42;3.90;;;0.60;;
57327;SDS011;43162;51.040;18.244;2022-09-09T15:46:23;4.50;;;0.70;;
57327;SDS011;43162;51.040;18.244;2022-09-09T15:48:53;4.60;;;0.60;;
57327;SDS011;43162;51.040;18.244;2022-09-09T15:51:19;3.50;;;0.70;;
57327;SDS011;43162;51.040;18.244;2022-09-09T15:53:45;2.80;;;0.60;;
57327;SDS011;43162;51.040;18.244;2022-09-09T15:56:11;4.90;;;0.80;;
57327;SDS011;43162;51.040;18.244;2022-09-09T15:58:36;9.00;;;1.00;;
57327;SDS011;43162;51.040;18.244;2022-09-09T16:01:03;2.30;;;0.60;;
57327;SDS011;43162;51.040;18.244;2022-09-09T16:03:36;2.20;;;0.60;;
57327;SDS011;43162;51.040;18.244;2022-09-09T16:06:02;3.30;;;0.60;;
57327;SDS011;43162;51.040;18.244;2022-09-09T16:08:31;3.20;;;0.90;;
57327;SDS011;43162;51.040;18.244;2022-09-09T16:11:03;6.00;;;1.10;;
57327;SDS011;43162;51.040;18.244;2022-09-09T16:13:32;4.60;;;1.00;;
57327;SDS011;43162;51.040;18.244;2022-09-09T16:15:58;3.80;;;1.00;;
57327;SDS011;43162;51.040;18.244;2022-09-09T16:18:24;3.80;;;0.90;;
57327;SDS011;43162;51.040;18.244;2022-09-09T16:20:53;3.00;;;0.70;;
57327;SDS011;43162;51.040;18.244;2022-09-09T16:23:19;4.20;;;0.80;;
57327;SDS011;43162;51.040;18.244;2022-09-09T16:25:52;3.20;;;1.10;;
57327;SDS011;43162;51.040;18.244;2022-09-09T16:28:18;3.70;;;1.90;;
57327;SDS011;43162;51.040;18.244;2022-09-09T16:30:43;4.70;;;2.30;;
57327;SDS011;43162;51.040;18.244;2022-09-09T16:33:09;5.70;;;2.90;;
57327;SDS011;43162;51.040;18.244;2022-09-09T16:35:36;10.30;;;4.70;;
57327;SDS011;43162;51.040;18.244;2022-09-09T16:38:01;8.20;;;3.80;;
57327;SDS011;43162;51.040;18.244;2022-09-09T16:40:27;3.60;;;1.80;;